Navarro Mills, Texas
Current Conditions -  °F | °C
As of 5:53 PM on Friday 21 Nov 2014 (Local Time) from KCRS Reporting Station
Overcast Overcast  
Wind Chill: 65°   Ceiling: 1000
Heat Index: 65°   Visibility: 10mi
Dew Point: 62°   Wind: 10mph
Humidity: 90%   Direction: 140°SE
Pressure: 30.09"   Gusts: NA
Location:  31.9458°N, 96.5713°W
Report Text: KCRS 212353Z AUTO 14009KT 10SM OVC010 18/17 A3009 RMK AO2 SLP187 60001 T01830167 10194 20178 53005
Loading
Personal Weather Stations






























Interactive Weather Map New forecast layout! Learn more

10-Day Weather Forecast

Advertisements
Track Severe Weather on mobile